UAE7V OMDB-LFPG
Flight info
| Callsign | UAE7V |
|---|---|
| Flight time | N/A |
| Altitude | 37000 |
| Route | ANVIX L223 TARDI N629 BOTAM Y855 LAKLU/N0493F360 Q204 NALKI G652 TOKRA DCT ALROK DCT BOSOB DCT ITRUX Y511 NALBA/N0492F380 Y511 PMA Z712 WEJ L677 CVO L617 NOZ L551 ANTAR UN133 GUDIS DCT RIGRO DCT AMISI DCT DISOR/N0479F400 DCT LONTA UL608 DOLEV DCT PEVAL DCT RESIA DCT SOPER DCT ELMUR L613 HOC/N0477F390 DCT MOROK/N0456F350 DCT PENDU DCT JAVVU DCT GIVRI/N0470F380 DCT TINIL |
| Aircraft | A388/J-SADE2E3FGHIJ3J4J5M1RWXY/LB1D1 |
Departure
| Time | N/A |
|---|---|
| Airport | Dubai International Airport (OMDB) |
Arrival
| Time | 2026-05-05 19:04 |
|---|---|
| Airport | Charles de Gaulle International Airport (LFPG) |
| Time | Latitude | Longitude | Altitude | Speed | Heading |
|---|---|---|---|---|---|
| 2026-05-05 18:04 | 46.72306 | 9.39487 | 39908 ft | 470 kts | 294° |
| 2026-05-05 18:04 | 46.73866 | 9.35296 | 39902 ft | 470 kts | 294° |
| 2026-05-05 18:05 | 46.76986 | 9.26902 | 39898 ft | 471 kts | 294° |
| 2026-05-05 18:05 | 46.80101 | 9.18491 | 39900 ft | 471 kts | 294° |
| 2026-05-05 18:06 | 46.83218 | 9.10048 | 39902 ft | 472 kts | 294° |
| 2026-05-05 18:06 | 46.87013 | 9.02386 | 39896 ft | 481 kts | 311° |
| 2026-05-05 18:07 | 46.92417 | 8.96506 | 39895 ft | 491 kts | 329° |
| 2026-05-05 18:07 | 46.98366 | 8.93345 | 39893 ft | 500 kts | 345° |
| 2026-05-05 18:08 | 47.05269 | 8.91787 | 39897 ft | 499 kts | 340° |
| 2026-05-05 18:08 | 47.11259 | 8.87564 | 39897 ft | 487 kts | 319° |
| 2026-05-05 18:08 | 47.13753 | 8.84226 | 39901 ft | 481 kts | 307° |
| 2026-05-05 18:09 | 47.15737 | 8.80652 | 39900 ft | 479 kts | 305° |
| 2026-05-05 18:09 | 47.19520 | 8.72649 | 39906 ft | 475 kts | 296° |
| 2026-05-05 18:10 | 47.22448 | 8.63975 | 39911 ft | 471 kts | 288° |
| 2026-05-05 18:10 | 47.24744 | 8.54959 | 39906 ft | 470 kts | 287° |
| 2026-05-05 18:11 | 47.27046 | 8.45940 | 39902 ft | 471 kts | 287° |
| 2026-05-05 18:11 | 47.29331 | 8.36906 | 39890 ft | 471 kts | 287° |
| 2026-05-05 18:12 | 47.31214 | 8.29400 | 39898 ft | 471 kts | 287° |
| 2026-05-05 18:12 | 47.33836 | 8.18850 | 39896 ft | 471 kts | 287° |
| 2026-05-05 18:13 | 47.36084 | 8.09766 | 39886 ft | 472 kts | 287° |
| 2026-05-05 18:13 | 47.37966 | 8.02136 | 39881 ft | 472 kts | 287° |
| 2026-05-05 18:14 | 47.40207 | 7.93019 | 39873 ft | 473 kts | 286° |
| 2026-05-05 18:14 | 47.42444 | 7.83881 | 39866 ft | 473 kts | 286° |
| 2026-05-05 18:15 | 47.44625 | 7.74740 | 39858 ft | 472 kts | 283° |
| 2026-05-05 18:15 | 47.45871 | 7.65280 | 39853 ft | 468 kts | 272° |
| 2026-05-05 18:16 | 47.45929 | 7.55701 | 39856 ft | 464 kts | 262° |
| 2026-05-05 18:16 | 47.45293 | 7.46225 | 39857 ft | 465 kts | 262° |
| 2026-05-05 18:17 | 47.44684 | 7.36797 | 39858 ft | 465 kts | 262° |
| 2026-05-05 18:17 | 47.44040 | 7.27202 | 39860 ft | 466 kts | 262° |
| 2026-05-05 18:18 | 47.43387 | 7.17684 | 39874 ft | 466 kts | 262° |
| 2026-05-05 18:18 | 47.42722 | 7.08141 | 39872 ft | 467 kts | 262° |
| 2026-05-05 18:19 | 47.42061 | 6.98748 | 39869 ft | 467 kts | 262° |
| 2026-05-05 18:19 | 47.41379 | 6.89188 | 39858 ft | 467 kts | 261° |
| 2026-05-05 18:20 | 47.40692 | 6.79659 | 39864 ft | 467 kts | 261° |
| 2026-05-05 18:20 | 47.39992 | 6.70056 | 39868 ft | 468 kts | 261° |
| 2026-05-05 18:21 | 47.39290 | 6.60521 | 39867 ft | 468 kts | 261° |
| 2026-05-05 18:21 | 47.38584 | 6.51077 | 39877 ft | 468 kts | 261° |
| 2026-05-05 18:22 | 47.37864 | 6.41544 | 39875 ft | 468 kts | 261° |
| 2026-05-05 18:22 | 47.37135 | 6.31983 | 39873 ft | 468 kts | 261° |
| 2026-05-05 18:23 | 47.36399 | 6.22445 | 39870 ft | 468 kts | 261° |
| 2026-05-05 18:23 | 47.35654 | 6.12909 | 39867 ft | 469 kts | 261° |
| 2026-05-05 18:24 | 47.34900 | 6.03344 | 39868 ft | 470 kts | 261° |
| 2026-05-05 18:24 | 47.34117 | 5.93777 | 39866 ft | 471 kts | 261° |
| 2026-05-05 18:25 | 47.33313 | 5.84190 | 39862 ft | 470 kts | 261° |
| 2026-05-05 18:25 | 47.32528 | 5.74620 | 39854 ft | 471 kts | 261° |
| 2026-05-05 18:26 | 47.31756 | 5.65051 | 39850 ft | 471 kts | 261° |
| 2026-05-05 18:26 | 47.30972 | 5.55469 | 39662 ft | 472 kts | 261° |
| 2026-05-05 18:26 | 47.30585 | 5.50688 | 39428 ft | 470 kts | 263° |
| 2026-05-05 18:27 | 47.30581 | 5.45866 | 39210 ft | 473 kts | 274° |
| 2026-05-05 18:27 | 47.31205 | 5.41098 | 38980 ft | 477 kts | 284° |
| 2026-05-05 18:27 | 47.32448 | 5.36532 | 38759 ft | 483 kts | 295° |
| 2026-05-05 18:27 | 47.34272 | 5.32355 | 38539 ft | 487 kts | 306° |
| 2026-05-05 18:28 | 47.39385 | 5.25802 | 37246 ft | 494 kts | 328° |
| 2026-05-05 18:28 | 47.42419 | 5.23346 | 36302 ft | 498 kts | 329° |
| 2026-05-05 18:28 | 47.45477 | 5.20878 | 35317 ft | 503 kts | 329° |
| 2026-05-05 18:29 | 47.48555 | 5.18373 | 34303 ft | 508 kts | 329° |
| 2026-05-05 18:29 | 47.51662 | 5.15828 | 33250 ft | 511 kts | 329° |
| 2026-05-05 18:29 | 47.54744 | 5.13307 | 32594 ft | 504 kts | 329° |
| 2026-05-05 18:29 | 47.57778 | 5.10752 | 31916 ft | 497 kts | 326° |
| 2026-05-05 18:30 | 47.60556 | 5.07809 | 31245 ft | 491 kts | 318° |
| 2026-05-05 18:30 | 47.63145 | 5.04512 | 30594 ft | 486 kts | 317° |
| 2026-05-05 18:30 | 47.65706 | 5.01286 | 29923 ft | 483 kts | 318° |
| 2026-05-05 18:30 | 47.68238 | 4.98124 | 29209 ft | 479 kts | 318° |
| 2026-05-05 18:31 | 47.70774 | 4.94954 | 28532 ft | 474 kts | 318° |
| 2026-05-05 18:31 | 47.73275 | 4.91818 | 27878 ft | 468 kts | 318° |
| 2026-05-05 18:31 | 47.75741 | 4.88711 | 27358 ft | 461 kts | 318° |
| 2026-05-05 18:31 | 47.78148 | 4.85664 | 27142 ft | 447 kts | 318° |
| 2026-05-05 18:32 | 47.80489 | 4.82693 | 26921 ft | 441 kts | 318° |
| 2026-05-05 18:32 | 47.82822 | 4.79725 | 26643 ft | 440 kts | 318° |
| 2026-05-05 18:32 | 47.85149 | 4.76763 | 26349 ft | 439 kts | 318° |
| 2026-05-05 18:32 | 47.87459 | 4.73821 | 26056 ft | 436 kts | 318° |
| 2026-05-05 18:33 | 47.89757 | 4.70891 | 25766 ft | 433 kts | 318° |
| 2026-05-05 18:33 | 47.92014 | 4.68009 | 25485 ft | 431 kts | 318° |
| 2026-05-05 18:33 | 47.94287 | 4.65104 | 25197 ft | 429 kts | 318° |
| 2026-05-05 18:33 | 47.96552 | 4.62207 | 24893 ft | 427 kts | 318° |
| 2026-05-05 18:34 | 47.98800 | 4.59327 | 24610 ft | 425 kts | 318° |
| 2026-05-05 18:34 | 48.01034 | 4.56462 | 24327 ft | 423 kts | 318° |
| 2026-05-05 18:34 | 48.03259 | 4.53605 | 24045 ft | 422 kts | 318° |
| 2026-05-05 18:34 | 48.05482 | 4.50747 | 23757 ft | 419 kts | 318° |
| 2026-05-05 18:35 | 48.07681 | 4.47917 | 23480 ft | 417 kts | 318° |
| 2026-05-05 18:35 | 48.09874 | 4.45092 | 23174 ft | 415 kts | 318° |
| 2026-05-05 18:35 | 48.12060 | 4.42272 | 22877 ft | 413 kts | 318° |
| 2026-05-05 18:35 | 48.14224 | 4.39477 | 22615 ft | 412 kts | 318° |
| 2026-05-05 18:36 | 48.16384 | 4.36685 | 22337 ft | 410 kts | 318° |
| 2026-05-05 18:36 | 48.18549 | 4.33881 | 22065 ft | 409 kts | 318° |
| 2026-05-05 18:36 | 48.20671 | 4.31132 | 21786 ft | 407 kts | 318° |
| 2026-05-05 18:36 | 48.22806 | 4.28361 | 21518 ft | 405 kts | 318° |
| 2026-05-05 18:37 | 48.24932 | 4.25600 | 21251 ft | 403 kts | 317° |
| 2026-05-05 18:37 | 48.26922 | 4.22658 | 20975 ft | 400 kts | 309° |
| 2026-05-05 18:37 | 48.28683 | 4.19418 | 20704 ft | 399 kts | 307° |
| 2026-05-05 18:37 | 48.30434 | 4.16208 | 20444 ft | 397 kts | 308° |
| 2026-05-05 18:38 | 48.32192 | 4.13018 | 20186 ft | 395 kts | 308° |
| 2026-05-05 18:38 | 48.33940 | 4.09844 | 19911 ft | 393 kts | 308° |
| 2026-05-05 18:38 | 48.35673 | 4.06688 | 19593 ft | 392 kts | 307° |
| 2026-05-05 18:38 | 48.37403 | 4.03531 | 19227 ft | 389 kts | 307° |
| 2026-05-05 18:39 | 48.39117 | 4.00396 | 18876 ft | 386 kts | 307° |
| 2026-05-05 18:39 | 48.40814 | 3.97288 | 18512 ft | 384 kts | 307° |
| 2026-05-05 18:39 | 48.42502 | 3.94193 | 18171 ft | 381 kts | 307° |
| 2026-05-05 18:39 | 48.43819 | 3.91774 | 17878 ft | 380 kts | 306° |
| 2026-05-05 18:40 | 48.45488 | 3.88704 | 17518 ft | 377 kts | 306° |
| 2026-05-05 18:40 | 48.47143 | 3.85659 | 17165 ft | 375 kts | 306° |
| 2026-05-05 18:40 | 48.48772 | 3.82657 | 16846 ft | 373 kts | 306° |
| 2026-05-05 18:40 | 48.50428 | 3.79604 | 16500 ft | 370 kts | 306° |
| 2026-05-05 18:41 | 48.52054 | 3.76602 | 16163 ft | 368 kts | 306° |
| 2026-05-05 18:41 | 48.53660 | 3.73620 | 15821 ft | 366 kts | 305° |
| 2026-05-05 18:41 | 48.55057 | 3.70500 | 15619 ft | 362 kts | 299° |
| 2026-05-05 18:41 | 48.56404 | 3.67317 | 15436 ft | 362 kts | 300° |
| 2026-05-05 18:42 | 48.57774 | 3.64141 | 15254 ft | 360 kts | 300° |
| 2026-05-05 18:42 | 48.59141 | 3.60978 | 15059 ft | 359 kts | 300° |
| 2026-05-05 18:42 | 48.60500 | 3.57827 | 14879 ft | 358 kts | 300° |
| 2026-05-05 18:42 | 48.61856 | 3.54670 | 14788 ft | 357 kts | 300° |
| 2026-05-05 18:43 | 48.63225 | 3.51475 | 14788 ft | 357 kts | 300° |
| 2026-05-05 18:43 | 48.64554 | 3.48369 | 14784 ft | 357 kts | 300° |
| 2026-05-05 18:43 | 48.65906 | 3.45205 | 14788 ft | 358 kts | 300° |
| 2026-05-05 18:43 | 48.67254 | 3.42048 | 14731 ft | 356 kts | 300° |
| 2026-05-05 18:44 | 48.68596 | 3.38899 | 14301 ft | 357 kts | 300° |
| 2026-05-05 18:44 | 48.69928 | 3.35774 | 14201 ft | 352 kts | 300° |
| 2026-05-05 18:44 | 48.71258 | 3.32646 | 14109 ft | 354 kts | 301° |
| 2026-05-05 18:44 | 48.72589 | 3.29514 | 13891 ft | 353 kts | 301° |
| 2026-05-05 18:45 | 48.73912 | 3.26397 | 13651 ft | 350 kts | 301° |
| 2026-05-05 18:45 | 48.75223 | 3.23303 | 13391 ft | 349 kts | 301° |
| 2026-05-05 18:45 | 48.76531 | 3.20214 | 13124 ft | 348 kts | 301° |
| 2026-05-05 18:45 | 48.77837 | 3.17126 | 12879 ft | 347 kts | 301° |
| 2026-05-05 18:46 | 48.79135 | 3.14051 | 12800 ft | 346 kts | 301° |
| 2026-05-05 18:46 | 48.80431 | 3.10982 | 12805 ft | 346 kts | 301° |
| 2026-05-05 18:46 | 48.81724 | 3.07911 | 12806 ft | 346 kts | 301° |
| 2026-05-05 18:46 | 48.83020 | 3.04834 | 12803 ft | 346 kts | 301° |
| 2026-05-05 18:47 | 48.84333 | 3.01780 | 12804 ft | 346 kts | 304° |
| 2026-05-05 18:47 | 48.85898 | 2.98974 | 12812 ft | 347 kts | 311° |
| 2026-05-05 18:47 | 48.86454 | 2.98076 | 12810 ft | 348 kts | 311° |
| 2026-05-05 18:48 | 48.87430 | 2.96488 | 12811 ft | 348 kts | 311° |
| 2026-05-05 18:48 | 48.88284 | 2.95081 | 12811 ft | 348 kts | 311° |
| 2026-05-05 18:49 | 48.89914 | 2.92375 | 12817 ft | 347 kts | 310° |
| 2026-05-05 18:49 | 48.91542 | 2.89662 | 12818 ft | 347 kts | 310° |
| 2026-05-05 18:49 | 48.92971 | 2.86734 | 12821 ft | 345 kts | 295° |
| 2026-05-05 18:49 | 48.93628 | 2.83261 | 12823 ft | 343 kts | 273° |
| 2026-05-05 18:50 | 48.93514 | 2.79647 | 12825 ft | 343 kts | 263° |
| 2026-05-05 18:50 | 48.93285 | 2.76019 | 12824 ft | 345 kts | 264° |
| 2026-05-05 18:50 | 48.93091 | 2.72701 | 12823 ft | 331 kts | 264° |
| 2026-05-05 18:50 | 48.92903 | 2.69312 | 12828 ft | 314 kts | 264° |
| 2026-05-05 18:51 | 48.92728 | 2.66071 | 12819 ft | 303 kts | 264° |
| 2026-05-05 18:51 | 48.92557 | 2.62890 | 12591 ft | 301 kts | 265° |
| 2026-05-05 18:51 | 48.92386 | 2.59725 | 12173 ft | 301 kts | 265° |
| 2026-05-05 18:51 | 48.92214 | 2.56556 | 11620 ft | 302 kts | 265° |
| 2026-05-05 18:52 | 48.92041 | 2.53386 | 11073 ft | 299 kts | 265° |
| 2026-05-05 18:52 | 48.91868 | 2.50238 | 10516 ft | 298 kts | 266° |
| 2026-05-05 18:52 | 48.91696 | 2.47107 | 9965 ft | 297 kts | 266° |
| 2026-05-05 18:52 | 48.91524 | 2.43995 | 9413 ft | 294 kts | 266° |
| 2026-05-05 18:53 | 48.91353 | 2.40911 | 8935 ft | 291 kts | 266° |
| 2026-05-05 18:53 | 48.91182 | 2.37859 | 8497 ft | 290 kts | 266° |
| 2026-05-05 18:53 | 48.91012 | 2.34817 | 8138 ft | 287 kts | 266° |
| 2026-05-05 18:53 | 48.90842 | 2.31812 | 7750 ft | 286 kts | 266° |
| 2026-05-05 18:54 | 48.90671 | 2.28796 | 7360 ft | 284 kts | 266° |
| 2026-05-05 18:54 | 48.90502 | 2.25827 | 7009 ft | 282 kts | 267° |
| 2026-05-05 18:54 | 48.90332 | 2.22865 | 6658 ft | 279 kts | 267° |
| 2026-05-05 18:54 | 48.90163 | 2.19936 | 6289 ft | 278 kts | 267° |
| 2026-05-05 18:55 | 48.89994 | 2.17012 | 5961 ft | 279 kts | 267° |
| 2026-05-05 18:55 | 48.89825 | 2.14081 | 5699 ft | 278 kts | 267° |
| 2026-05-05 18:55 | 48.89990 | 2.11204 | 5435 ft | 274 kts | 291° |
| 2026-05-05 18:55 | 48.90933 | 2.08838 | 5186 ft | 263 kts | 318° |
| 2026-05-05 18:56 | 48.92487 | 2.07463 | 5001 ft | 248 kts | 348° |
| 2026-05-05 18:56 | 48.94126 | 2.07493 | 4998 ft | 231 kts | 19° |
| 2026-05-05 18:56 | 48.95441 | 2.08786 | 5003 ft | 228 kts | 49° |
| 2026-05-05 18:56 | 48.96241 | 2.10890 | 5000 ft | 232 kts | 63° |
| 2026-05-05 18:57 | 48.96661 | 2.12391 | 5004 ft | 235 kts | 69° |
| 2026-05-05 18:57 | 48.97108 | 2.15618 | 4998 ft | 229 kts | 81° |
| 2026-05-05 18:57 | 48.97210 | 2.17192 | 4997 ft | 224 kts | 82° |
| 2026-05-05 18:57 | 48.97375 | 2.20322 | 5010 ft | 218 kts | 83° |
| 2026-05-05 18:58 | 48.97494 | 2.22564 | 4826 ft | 210 kts | 82° |
| 2026-05-05 18:58 | 48.97574 | 2.24038 | 4630 ft | 211 kts | 82° |
| 2026-05-05 18:58 | 48.97719 | 2.26836 | 4249 ft | 194 kts | 82° |
| 2026-05-05 18:58 | 48.97794 | 2.28227 | 4063 ft | 191 kts | 82° |
| 2026-05-05 18:59 | 48.97900 | 2.30234 | 3813 ft | 189 kts | 82° |
| 2026-05-05 18:59 | 48.98006 | 2.32222 | 3549 ft | 189 kts | 81° |
| 2026-05-05 18:59 | 48.98111 | 2.34197 | 3298 ft | 182 kts | 81° |
| 2026-05-05 18:59 | 48.98208 | 2.36067 | 3062 ft | 175 kts | 81° |
| 2026-05-05 19:00 | 48.98307 | 2.37920 | 2828 ft | 176 kts | 81° |
| 2026-05-05 19:00 | 48.98403 | 2.39750 | 2579 ft | 167 kts | 81° |
| 2026-05-05 19:00 | 48.98490 | 2.41421 | 2373 ft | 149 kts | 79° |
| 2026-05-05 19:00 | 48.98568 | 2.42907 | 2174 ft | 137 kts | 78° |
| 2026-05-05 19:01 | 48.98646 | 2.44336 | 1988 ft | 134 kts | 78° |
| 2026-05-05 19:01 | 48.98721 | 2.45751 | 1802 ft | 135 kts | 79° |
| 2026-05-05 19:01 | 48.98795 | 2.47165 | 1628 ft | 132 kts | 79° |
| 2026-05-05 19:01 | 48.98870 | 2.48553 | 1454 ft | 132 kts | 79° |
| 2026-05-05 19:02 | 48.98946 | 2.49961 | 1262 ft | 134 kts | 78° |
| 2026-05-05 19:02 | 48.99021 | 2.51390 | 1064 ft | 137 kts | 81° |
| 2026-05-05 19:02 | 48.99102 | 2.52838 | 866 ft | 136 kts | 82° |
| 2026-05-05 19:02 | 48.99171 | 2.54273 | 681 ft | 136 kts | 81° |
| 2026-05-05 19:03 | 48.99252 | 2.55709 | 487 ft | 136 kts | 80° |
| 2026-05-05 19:03 | 48.99325 | 2.57125 | 370 ft | 129 kts | 82° |
| 2026-05-05 19:03 | 48.99383 | 2.58274 | 362 ft | 88 kts | 85° |
| 2026-05-05 19:03 | 48.99424 | 2.59041 | 363 ft | 61 kts | 85° |
| 2026-05-05 19:04 | 48.99453 | 2.59574 | 357 ft | 33 kts | 86° |
| 2026-05-05 19:04 | 48.99472 | 2.59833 | 365 ft | 18 kts | 70° |
| 2026-05-05 19:04 | 48.99505 | 2.59918 | 365 ft | 8 kts | 47° |
| 2026-05-05 19:04 | 48.99557 | 2.59965 | 363 ft | 10 kts | 16° |
| 2026-05-05 19:05 | 48.99618 | 2.59982 | 363 ft | 8 kts | 353° |
| 2026-05-05 19:05 | 48.99675 | 2.59972 | 362 ft | 8 kts | 354° |
| 2026-05-05 19:05 | 48.99727 | 2.59966 | 363 ft | 7 kts | 356° |
| 2026-05-05 19:05 | 48.99785 | 2.59960 | 367 ft | 9 kts | 356° |
| 2026-05-05 19:06 | 48.99853 | 2.59960 | 362 ft | 10 kts | 12° |
| 2026-05-05 19:06 | 48.99912 | 2.60021 | 367 ft | 11 kts | 43° |
| 2026-05-05 19:06 | 48.99972 | 2.60066 | 361 ft | 9 kts | 357° |
| 2026-05-05 19:06 | 49.00021 | 2.60031 | 366 ft | 8 kts | 323° |
| 2026-05-05 19:07 | 49.00069 | 2.59992 | 365 ft | 8 kts | 329° |
| 2026-05-05 19:07 | 49.00096 | 2.59935 | 365 ft | 7 kts | 279° |
| 2026-05-05 19:07 | 49.00094 | 2.59854 | 366 ft | 9 kts | 265° |
| 2026-05-05 19:07 | 49.00089 | 2.59743 | 366 ft | 11 kts | 266° |
| 2026-05-05 19:08 | 49.00082 | 2.59606 | 363 ft | 14 kts | 265° |
| 2026-05-05 19:08 | 49.00073 | 2.59451 | 367 ft | 15 kts | 265° |
| 2026-05-05 19:08 | 49.00064 | 2.59285 | 364 ft | 16 kts | 265° |
| 2026-05-05 19:08 | 49.00055 | 2.59123 | 361 ft | 10 kts | 265° |
| 2026-05-05 19:09 | 49.00052 | 2.59057 | 365 ft | 7 kts | 265° |
| 2026-05-05 19:09 | 49.00050 | 2.59021 | 364 ft | 6 kts | 265° |
| 2026-05-05 19:09 | 49.00044 | 2.58914 | 364 ft | 15 kts | 266° |
| 2026-05-05 19:09 | 49.00036 | 2.58745 | 359 ft | 17 kts | 265° |
| 2026-05-05 19:10 | 49.00025 | 2.58565 | 359 ft | 17 kts | 264° |
| 2026-05-05 19:10 | 49.00017 | 2.58390 | 367 ft | 17 kts | 266° |
| 2026-05-05 19:10 | 49.00008 | 2.58212 | 363 ft | 17 kts | 265° |
| 2026-05-05 19:10 | 48.99998 | 2.58038 | 362 ft | 16 kts | 265° |
| 2026-05-05 19:11 | 48.99989 | 2.57863 | 366 ft | 16 kts | 265° |
| 2026-05-05 19:11 | 48.99979 | 2.57693 | 361 ft | 17 kts | 265° |
| 2026-05-05 19:11 | 48.99969 | 2.57518 | 359 ft | 17 kts | 265° |
| 2026-05-05 19:11 | 48.99960 | 2.57341 | 365 ft | 17 kts | 266° |
| 2026-05-05 19:12 | 48.99953 | 2.57184 | 363 ft | 13 kts | 265° |
| 2026-05-05 19:12 | 48.99950 | 2.57064 | 364 ft | 9 kts | 283° |
| 2026-05-05 19:12 | 48.99982 | 2.57003 | 364 ft | 7 kts | 338° |
| 2026-05-05 19:12 | 49.00031 | 2.56989 | 362 ft | 7 kts | 355° |
| 2026-05-05 19:13 | 49.00081 | 2.56984 | 359 ft | 6 kts | 4° |
| 2026-05-05 19:13 | 49.00120 | 2.56997 | 361 ft | 6 kts | 13° |
| 2026-05-05 19:13 | 49.00163 | 2.57002 | 366 ft | 4 kts | 357° |
| 2026-05-05 19:13 | 49.00189 | 2.56999 | 361 ft | 3 kts | 351° |
| 2026-05-05 19:14 | 49.00214 | 2.56991 | 359 ft | 3 kts | 346° |
| 2026-05-05 19:14 | 49.00222 | 2.56988 | 359 ft | 2 kts | 346° |
| 2026-05-05 19:14 | 49.00225 | 2.56986 | 359 ft | 0 kts | 346° |